createdAt,value
2023-01-22T00:00:03.395Z,983.90
2023-01-22T00:01:03.284Z,983.92
2023-01-22T00:02:03.190Z,983.87
2023-01-22T00:03:03.271Z,983.95
2023-01-22T00:04:03.457Z,983.81
2023-01-22T00:05:03.279Z,983.84
2023-01-22T00:06:03.137Z,983.81
2023-01-22T00:07:03.132Z,983.81
2023-01-22T00:08:03.092Z,983.81
2023-01-22T00:09:02.964Z,983.84
2023-01-22T00:10:02.892Z,983.81
2023-01-22T00:11:03.859Z,983.89
2023-01-22T00:12:03.861Z,983.92
2023-01-22T00:13:03.745Z,983.98
2023-01-22T00:14:03.791Z,983.87
2023-01-22T00:15:03.707Z,983.84
2023-01-22T00:16:03.793Z,983.89
2023-01-22T00:17:03.610Z,983.90
2023-01-22T00:18:03.609Z,983.92
2023-01-22T00:19:03.515Z,983.84
2023-01-22T00:20:03.529Z,983.87
2023-01-22T00:21:03.391Z,983.95
2023-01-22T00:22:03.415Z,983.81
2023-01-22T00:23:03.308Z,983.84
2023-01-22T00:24:03.300Z,983.84
2023-01-22T00:25:03.218Z,984.03
2023-01-22T00:26:03.211Z,983.92
2023-01-22T00:27:03.211Z,984.01
2023-01-22T00:28:03.286Z,983.90
2023-01-22T00:29:03.348Z,983.90
2023-01-22T00:30:03.237Z,983.92
2023-01-22T00:31:03.454Z,983.92
2023-01-22T00:32:03.504Z,983.90
2023-01-22T00:33:03.232Z,983.84
2023-01-22T00:34:03.222Z,984.03
2023-01-22T00:35:03.243Z,984.06
2023-01-22T00:36:03.323Z,984.09
2023-01-22T00:37:03.228Z,984.03
2023-01-22T00:38:03.205Z,984.03
2023-01-22T00:39:03.209Z,984.01
2023-01-22T00:40:03.299Z,984.06
2023-01-22T00:41:03.309Z,984.04
2023-01-22T00:42:03.236Z,984.06
2023-01-22T00:43:03.273Z,984.17
2023-01-22T00:44:03.286Z,984.09
2023-01-22T00:45:03.364Z,983.95
2023-01-22T00:46:03.634Z,984.23
2023-01-22T00:47:03.420Z,984.09
2023-01-22T00:48:03.366Z,983.98
2023-01-22T00:49:03.425Z,984.04
2023-01-22T00:50:03.436Z,984.04
2023-01-22T00:51:03.509Z,983.95
2023-01-22T00:52:03.232Z,984.06
2023-01-22T00:53:03.256Z,983.98
2023-01-22T00:54:03.171Z,984.09
2023-01-22T00:55:03.197Z,984.04
2023-01-22T00:56:03.084Z,984.04
2023-01-22T00:57:03.358Z,984.06
2023-01-22T00:58:03.059Z,984.12
2023-01-22T00:59:03.012Z,984.04
2023-01-22T01:00:03.023Z,984.01
2023-01-22T01:01:03.323Z,984.06
2023-01-22T01:02:03.042Z,984.09
2023-01-22T01:03:02.918Z,984.12
2023-01-22T01:04:02.998Z,984.06
2023-01-22T01:05:02.891Z,984.20
2023-01-22T01:06:03.859Z,984.12
2023-01-22T01:07:03.229Z,984.12
2023-01-22T01:08:03.132Z,984.15
2023-01-22T01:09:03.101Z,984.04
2023-01-22T01:10:03.467Z,984.06
2023-01-22T01:11:03.319Z,984.12
2023-01-22T01:12:03.244Z,984.15
2023-01-22T01:13:03.261Z,984.15
2023-01-22T01:14:03.382Z,984.12
2023-01-22T01:15:03.471Z,984.04
2023-01-22T01:16:03.656Z,984.01
2023-01-22T01:17:03.446Z,984.01
2023-01-22T01:18:03.478Z,984.18
2023-01-22T01:19:03.275Z,984.18
2023-01-22T01:20:03.261Z,984.18
2023-01-22T01:21:03.156Z,984.15
2023-01-22T01:22:03.083Z,984.06
2023-01-22T01:23:03.063Z,984.20
2023-01-22T01:24:03.079Z,984.06
2023-01-22T01:25:03.022Z,984.20
2023-01-22T01:26:03.018Z,984.15
2023-01-22T01:27:03.901Z,983.95
2023-01-22T01:28:03.766Z,984.01
2023-01-22T01:29:03.694Z,984.06
2023-01-22T01:30:03.725Z,983.98
2023-01-22T01:31:04.083Z,984.01
2023-01-22T01:32:03.748Z,984.06
2023-01-22T01:33:03.639Z,984.06
2023-01-22T01:34:03.614Z,984.06
2023-01-22T01:35:03.591Z,984.01
2023-01-22T01:36:03.568Z,983.90
2023-01-22T01:37:03.488Z,984.09
2023-01-22T01:38:03.561Z,983.98
2023-01-22T01:39:03.466Z,984.04
2023-01-22T01:40:03.412Z,984.09
2023-01-22T01:41:03.327Z,984.06
2023-01-22T01:42:03.315Z,984.17
2023-01-22T01:43:03.269Z,984.09
2023-01-22T01:44:03.165Z,984.15
2023-01-22T01:45:03.222Z,984.06
2023-01-22T01:46:03.084Z,984.01
2023-01-22T01:47:03.094Z,984.23
2023-01-22T01:48:03.081Z,984.04
2023-01-22T01:49:02.987Z,984.15
2023-01-22T01:50:03.017Z,984.12
2023-01-22T01:51:03.052Z,984.26
2023-01-22T01:52:02.906Z,984.18
2023-01-22T01:53:03.943Z,984.15
2023-01-22T01:54:03.796Z,984.23
2023-01-22T01:55:03.852Z,984.12
2023-01-22T01:56:03.907Z,984.15
2023-01-22T01:57:03.782Z,984.23
2023-01-22T01:58:03.734Z,984.23
2023-01-22T01:59:03.707Z,984.23
2023-01-22T02:00:03.573Z,984.20
2023-01-22T02:01:03.738Z,984.15
2023-01-22T02:02:03.728Z,984.23
2023-01-22T02:03:03.664Z,984.29
2023-01-22T02:04:03.761Z,984.20
2023-01-22T02:05:03.589Z,984.54
2023-01-22T02:06:03.593Z,984.26
2023-01-22T02:07:03.506Z,984.29
2023-01-22T02:08:03.729Z,984.37
2023-01-22T02:09:03.780Z,984.43
2023-01-22T02:10:03.690Z,984.26
2023-01-22T02:11:03.720Z,984.29
2023-01-22T02:12:03.799Z,984.40
2023-01-22T02:13:03.738Z,984.34
2023-01-22T02:14:03.670Z,984.31
2023-01-22T02:15:03.633Z,984.45
2023-01-22T02:16:03.612Z,984.37
2023-01-22T02:17:03.589Z,984.34
2023-01-22T02:18:03.523Z,984.37
2023-01-22T02:19:03.535Z,984.43
2023-01-22T02:20:03.409Z,984.34
2023-01-22T02:21:03.488Z,984.20
2023-01-22T02:22:03.422Z,984.43
2023-01-22T02:23:03.529Z,984.45
2023-01-22T02:24:03.407Z,984.40
2023-01-22T02:25:03.508Z,984.48
2023-01-22T02:26:03.404Z,984.29
2023-01-22T02:27:03.499Z,984.34
2023-01-22T02:28:03.441Z,984.45
2023-01-22T02:29:03.398Z,984.45
2023-01-22T02:30:03.335Z,984.51
2023-01-22T02:31:03.436Z,984.45
2023-01-22T02:32:03.396Z,984.48
2023-01-22T02:33:03.357Z,984.54
2023-01-22T02:34:03.266Z,984.37
2023-01-22T02:35:03.280Z,984.40
2023-01-22T02:36:03.228Z,984.45
2023-01-22T02:37:03.233Z,984.40
2023-01-22T02:38:03.217Z,984.48
2023-01-22T02:39:03.303Z,984.40
2023-01-22T02:40:03.193Z,984.54
2023-01-22T02:41:03.210Z,984.51
2023-01-22T02:42:03.218Z,984.45
2023-01-22T02:43:03.128Z,984.51
2023-01-22T02:44:03.101Z,984.62
2023-01-22T02:45:03.096Z,984.43
2023-01-22T02:46:03.293Z,984.45
2023-01-22T02:47:03.106Z,984.51
2023-01-22T02:48:03.017Z,984.48
2023-01-22T02:49:02.969Z,984.56
2023-01-22T02:50:03.853Z,984.57
2023-01-22T02:51:04.209Z,984.45
2023-01-22T02:52:03.784Z,984.65
2023-01-22T02:53:03.706Z,984.54
2023-01-22T02:54:03.777Z,984.57
2023-01-22T02:55:03.754Z,984.65
2023-01-22T02:56:03.821Z,984.65
2023-01-22T02:57:03.803Z,984.65
2023-01-22T02:58:03.681Z,984.57
2023-01-22T02:59:03.732Z,984.51
2023-01-22T03:00:03.628Z,984.59
2023-01-22T03:01:03.864Z,984.54
2023-01-22T03:02:03.805Z,984.56
2023-01-22T03:03:03.763Z,984.62
2023-01-22T03:04:03.823Z,984.48
2023-01-22T03:05:04.139Z,984.40
2023-01-22T03:06:03.699Z,984.40
2023-01-22T03:07:03.662Z,984.45
2023-01-22T03:08:03.687Z,984.51
2023-01-22T03:09:03.754Z,984.37
2023-01-22T03:10:03.818Z,984.45
2023-01-22T03:11:03.759Z,984.43
2023-01-22T03:12:03.741Z,984.43
2023-01-22T03:13:03.367Z,984.43
2023-01-22T03:14:03.533Z,984.31
2023-01-22T03:15:03.412Z,984.40
2023-01-22T03:16:03.698Z,984.40
2023-01-22T03:17:03.489Z,984.51
2023-01-22T03:18:03.576Z,984.40
2023-01-22T03:19:03.557Z,984.51
2023-01-22T03:20:03.485Z,984.37
2023-01-22T03:21:03.581Z,984.45
2023-01-22T03:22:03.488Z,984.51
2023-01-22T03:23:03.390Z,984.51
2023-01-22T03:24:03.252Z,984.43
2023-01-22T03:25:03.183Z,984.43
2023-01-22T03:26:03.104Z,984.48
2023-01-22T03:27:03.165Z,984.43
2023-01-22T03:28:03.105Z,984.20
2023-01-22T03:29:03.235Z,984.45
2023-01-22T03:30:03.124Z,984.57
2023-01-22T03:31:03.322Z,984.37
2023-01-22T03:32:03.243Z,984.40
2023-01-22T03:33:03.151Z,984.40
2023-01-22T03:34:03.159Z,984.34
2023-01-22T03:35:03.096Z,984.34
2023-01-22T03:36:03.129Z,984.51
2023-01-22T03:37:03.050Z,984.34
2023-01-22T03:38:02.943Z,984.54
2023-01-22T03:39:02.909Z,984.45
2023-01-22T03:40:02.957Z,984.40
2023-01-22T03:41:02.926Z,984.48
2023-01-22T03:42:02.959Z,984.45
2023-01-22T03:43:02.960Z,984.45
2023-01-22T03:44:03.879Z,984.43
2023-01-22T03:45:03.289Z,984.51
2023-01-22T03:46:03.355Z,984.45
2023-01-22T03:47:03.254Z,984.45
2023-01-22T03:48:03.143Z,984.45
2023-01-22T03:49:03.177Z,984.43
2023-01-22T03:50:03.090Z,984.37
2023-01-22T03:51:03.275Z,984.40
2023-01-22T03:52:03.314Z,984.45
2023-01-22T03:53:03.194Z,984.45
2023-01-22T03:54:03.099Z,984.43
2023-01-22T03:55:03.149Z,984.68
2023-01-22T03:56:03.232Z,984.57
2023-01-22T03:57:03.298Z,984.51
2023-01-22T03:58:03.098Z,984.51
2023-01-22T03:59:03.053Z,984.51
2023-01-22T04:00:03.064Z,984.57
2023-01-22T04:01:03.185Z,984.51
2023-01-22T04:02:03.067Z,984.48
2023-01-22T04:03:03.248Z,984.45
2023-01-22T04:04:03.213Z,984.54
2023-01-22T04:05:03.229Z,984.54
2023-01-22T04:06:03.176Z,984.51
2023-01-22T04:07:03.206Z,984.57
2023-01-22T04:08:03.327Z,984.57
2023-01-22T04:09:03.275Z,984.68
2023-01-22T04:10:03.256Z,984.71
2023-01-22T04:11:03.215Z,984.54
2023-01-22T04:12:03.389Z,984.62
2023-01-22T04:13:03.319Z,984.48
2023-01-22T04:14:03.225Z,984.57
2023-01-22T04:15:03.320Z,984.57
2023-01-22T04:16:03.275Z,984.57
2023-01-22T04:17:03.297Z,984.68
2023-01-22T04:18:03.328Z,984.51
2023-01-22T04:19:03.343Z,984.48
2023-01-22T04:20:03.320Z,984.73
2023-01-22T04:21:03.346Z,984.45
2023-01-22T04:22:03.279Z,984.59
2023-01-22T04:23:03.336Z,984.59
2023-01-22T04:24:03.189Z,984.78
2023-01-22T04:25:03.147Z,984.62
2023-01-22T04:26:03.171Z,984.70
2023-01-22T04:27:03.205Z,984.76
2023-01-22T04:28:03.184Z,984.68
2023-01-22T04:29:03.219Z,984.78
2023-01-22T04:30:03.100Z,984.62
2023-01-22T04:31:03.198Z,984.81
2023-01-22T04:32:03.022Z,984.78
2023-01-22T04:33:02.969Z,984.78
2023-01-22T04:34:02.999Z,984.86
2023-01-22T04:35:02.896Z,984.81
2023-01-22T04:36:02.997Z,984.62
2023-01-22T04:37:02.949Z,984.78
2023-01-22T04:38:03.139Z,984.76
2023-01-22T04:39:03.093Z,984.68
2023-01-22T04:40:03.088Z,984.83
2023-01-22T04:41:03.158Z,984.89
2023-01-22T04:42:03.116Z,984.83
2023-01-22T04:43:03.159Z,984.89
2023-01-22T04:44:03.161Z,984.89
2023-01-22T04:45:03.151Z,984.76
2023-01-22T04:46:03.264Z,984.83
2023-01-22T04:47:03.150Z,984.80
2023-01-22T04:48:03.097Z,984.80
2023-01-22T04:49:02.969Z,984.80
2023-01-22T04:50:03.106Z,984.89
2023-01-22T04:51:03.161Z,984.83
2023-01-22T04:52:02.927Z,984.86
2023-01-22T04:53:03.001Z,984.83
2023-01-22T04:54:03.930Z,984.94
2023-01-22T04:55:03.770Z,984.89
2023-01-22T04:56:03.756Z,984.73
2023-01-22T04:57:03.766Z,984.80
2023-01-22T04:58:03.866Z,984.78
2023-01-22T04:59:03.828Z,984.83
2023-01-22T05:00:03.794Z,984.86
2023-01-22T05:01:03.820Z,984.89
2023-01-22T05:02:03.617Z,984.86
2023-01-22T05:03:03.629Z,984.97
2023-01-22T05:04:03.605Z,984.97
2023-01-22T05:05:03.571Z,984.92
2023-01-22T05:06:03.571Z,984.86
2023-01-22T05:07:03.489Z,985.11
2023-01-22T05:08:03.511Z,984.86
2023-01-22T05:09:03.488Z,984.83
2023-01-22T05:10:03.538Z,985.03
2023-01-22T05:11:03.517Z,984.92
2023-01-22T05:12:03.411Z,984.97
2023-01-22T05:13:03.488Z,985.00
2023-01-22T05:14:03.475Z,985.08
2023-01-22T05:15:18.659Z,984.94
2023-01-22T05:16:03.598Z,985.03
2023-01-22T05:17:03.571Z,985.03
2023-01-22T05:18:03.567Z,984.92
2023-01-22T05:19:03.590Z,984.97
2023-01-22T05:20:03.645Z,985.14
2023-01-22T05:21:03.709Z,985.06
2023-01-22T05:22:03.656Z,985.06
2023-01-22T05:23:03.602Z,985.14
2023-01-22T05:24:03.707Z,985.00
2023-01-22T05:25:05.127Z,985.11
2023-01-22T05:26:03.805Z,985.03
2023-01-22T05:27:03.680Z,985.11
2023-01-22T05:28:03.807Z,985.14
2023-01-22T05:29:03.863Z,985.22
2023-01-22T05:30:03.738Z,985.06
2023-01-22T05:31:04.195Z,985.20
2023-01-22T05:32:03.776Z,985.22
2023-01-22T05:33:03.811Z,985.03
2023-01-22T05:34:03.917Z,985.06
2023-01-22T05:35:02.886Z,985.08
2023-01-22T05:36:02.951Z,985.14
2023-01-22T05:37:02.971Z,985.17
2023-01-22T05:38:02.972Z,985.06
2023-01-22T05:39:02.918Z,985.17
2023-01-22T05:40:02.914Z,985.20
2023-01-22T05:41:02.972Z,985.20
2023-01-22T05:42:03.867Z,985.17
2023-01-22T05:43:03.764Z,985.22
2023-01-22T05:44:03.754Z,985.20
2023-01-22T05:45:03.712Z,985.20
2023-01-22T05:46:03.239Z,985.25
2023-01-22T05:47:03.178Z,985.14
2023-01-22T05:48:03.152Z,985.22
2023-01-22T05:49:03.129Z,985.20
2023-01-22T05:50:03.125Z,985.35
2023-01-22T05:51:03.178Z,985.14
2023-01-22T05:52:03.180Z,985.44
2023-01-22T05:53:03.263Z,985.31
2023-01-22T05:54:03.148Z,985.31
2023-01-22T05:55:03.150Z,985.31
2023-01-22T05:56:03.129Z,985.38
2023-01-22T05:57:03.163Z,985.25
2023-01-22T05:58:06.435Z,985.08
2023-01-22T05:59:02.997Z,985.25
2023-01-22T06:00:03.233Z,985.38
2023-01-22T06:01:03.279Z,985.35
2023-01-22T06:02:03.340Z,985.25
2023-01-22T06:03:03.278Z,985.25
2023-01-22T06:04:03.414Z,985.25
2023-01-22T06:05:03.619Z,985.25
2023-01-22T06:06:03.401Z,985.25
2023-01-22T06:07:03.405Z,985.25
2023-01-22T06:08:03.222Z,985.25
2023-01-22T06:09:03.315Z,985.22
2023-01-22T06:10:03.587Z,985.19
2023-01-22T06:11:03.595Z,985.14
2023-01-22T06:12:03.636Z,985.22
2023-01-22T06:13:03.606Z,985.38
2023-01-22T06:14:03.497Z,985.38
2023-01-22T06:15:03.637Z,985.28
2023-01-22T06:16:03.616Z,985.28
2023-01-22T06:17:03.568Z,985.28
2023-01-22T06:18:03.595Z,985.28
2023-01-22T06:19:03.555Z,985.28
2023-01-22T06:20:03.532Z,985.03
2023-01-22T06:21:03.520Z,985.35
2023-01-22T06:22:03.642Z,985.35
2023-01-22T06:23:03.546Z,985.31
2023-01-22T06:24:03.500Z,985.35
2023-01-22T06:25:03.448Z,985.35
2023-01-22T06:26:03.354Z,985.41
2023-01-22T06:27:03.361Z,985.28
2023-01-22T06:28:03.293Z,985.35
2023-01-22T06:29:03.287Z,985.38
2023-01-22T06:30:03.257Z,985.35
2023-01-22T06:31:03.486Z,985.38
2023-01-22T06:32:03.165Z,985.28
2023-01-22T06:33:03.121Z,985.49
2023-01-22T06:34:03.101Z,985.52
2023-01-22T06:35:03.146Z,985.58
2023-01-22T06:36:03.159Z,985.44
2023-01-22T06:37:03.097Z,985.41
2023-01-22T06:38:03.048Z,985.49
2023-01-22T06:39:02.900Z,985.44
2023-01-22T06:40:02.964Z,985.52
2023-01-22T06:41:03.034Z,985.69
2023-01-22T06:42:03.002Z,985.55
2023-01-22T06:43:03.846Z,985.44
2023-01-22T06:44:02.870Z,985.60
2023-01-22T06:45:03.829Z,985.58
2023-01-22T06:46:03.756Z,985.58
2023-01-22T06:47:03.691Z,985.63
2023-01-22T06:48:03.738Z,985.52
2023-01-22T06:49:03.701Z,985.49
2023-01-22T06:50:03.676Z,985.52
2023-01-22T06:51:03.778Z,985.77
2023-01-22T06:52:03.666Z,985.66
2023-01-22T06:53:03.588Z,985.71
2023-01-22T06:54:03.575Z,985.66
2023-01-22T06:55:03.645Z,985.74
2023-01-22T06:56:03.411Z,985.55
2023-01-22T06:57:03.469Z,985.72
2023-01-22T06:58:03.488Z,985.83
2023-01-22T06:59:03.392Z,985.72
2023-01-22T07:00:03.491Z,985.83
2023-01-22T07:01:03.307Z,985.99
2023-01-22T07:02:03.330Z,985.77
2023-01-22T07:03:03.375Z,985.77
2023-01-22T07:04:03.280Z,985.91
2023-01-22T07:05:03.157Z,985.88
2023-01-22T07:06:03.015Z,985.97
2023-01-22T07:07:02.970Z,985.91
2023-01-22T07:08:02.984Z,985.99
2023-01-22T07:09:02.932Z,985.69
2023-01-22T07:10:03.921Z,985.96
2023-01-22T07:11:06.965Z,985.85
2023-01-22T07:12:03.825Z,986.02
2023-01-22T07:13:03.705Z,985.94
2023-01-22T07:14:03.559Z,985.99
2023-01-22T07:15:03.684Z,985.91
2023-01-22T07:16:03.731Z,985.85
2023-01-22T07:17:03.566Z,985.91
2023-01-22T07:18:03.622Z,985.91
2023-01-22T07:19:03.891Z,985.96
2023-01-22T07:20:03.662Z,985.91
2023-01-22T07:21:03.603Z,985.83
2023-01-22T07:22:03.790Z,985.99
2023-01-22T07:23:03.670Z,985.94
2023-01-22T07:24:03.640Z,985.94
2023-01-22T07:25:03.624Z,985.96
2023-01-22T07:26:03.654Z,986.10
2023-01-22T07:27:03.621Z,985.94
2023-01-22T07:28:03.598Z,985.99
2023-01-22T07:29:03.426Z,985.99
2023-01-22T07:30:03.453Z,986.10
2023-01-22T07:31:03.812Z,986.16
2023-01-22T07:32:03.400Z,986.07
2023-01-22T07:33:03.372Z,986.10
2023-01-22T07:34:03.369Z,986.27
2023-01-22T07:35:03.235Z,986.27
2023-01-22T07:36:03.329Z,986.21
2023-01-22T07:37:03.218Z,986.24
2023-01-22T07:38:03.340Z,986.21
2023-01-22T07:39:03.246Z,986.21
2023-01-22T07:40:03.127Z,986.16
2023-01-22T07:41:14.060Z,986.21
2023-01-22T07:42:03.186Z,986.19
2023-01-22T07:43:03.193Z,986.21
2023-01-22T07:44:03.311Z,986.44
2023-01-22T07:45:03.292Z,986.38
2023-01-22T07:46:03.199Z,986.27
2023-01-22T07:47:03.279Z,986.46
2023-01-22T07:48:03.205Z,986.43
2023-01-22T07:49:03.163Z,986.38
2023-01-22T07:50:03.195Z,986.38
2023-01-22T07:51:03.175Z,986.38
2023-01-22T07:52:03.104Z,986.35
2023-01-22T07:53:02.912Z,986.46
2023-01-22T07:54:02.938Z,986.49
2023-01-22T07:55:03.894Z,986.49
2023-01-22T07:56:04.028Z,986.43
2023-01-22T07:57:03.762Z,986.41
2023-01-22T07:58:03.885Z,986.52
2023-01-22T07:59:03.790Z,986.35
2023-01-22T08:00:03.869Z,986.56
2023-01-22T08:01:02.944Z,986.56
2023-01-22T08:02:04.132Z,986.43
2023-01-22T08:03:03.171Z,986.56
2023-01-22T08:04:03.114Z,986.56
2023-01-22T08:05:03.077Z,986.52
2023-01-22T08:06:03.027Z,986.59
2023-01-22T08:07:03.011Z,986.56
2023-01-22T08:08:03.031Z,986.52
2023-01-22T08:09:03.070Z,986.59
2023-01-22T08:10:02.978Z,986.54
2023-01-22T08:11:03.066Z,986.59
2023-01-22T08:12:02.969Z,986.49
2023-01-22T08:13:03.855Z,986.54
2023-01-22T08:14:03.017Z,986.56
2023-01-22T08:15:02.867Z,986.52
2023-01-22T08:16:04.074Z,986.54
2023-01-22T08:17:03.768Z,986.56
2023-01-22T08:18:03.824Z,986.56
2023-01-22T08:19:03.699Z,986.43
2023-01-22T08:20:03.687Z,986.38
2023-01-22T08:21:03.682Z,986.59
2023-01-22T08:22:03.005Z,986.52
2023-01-22T08:23:03.011Z,986.49
2023-01-22T08:24:02.987Z,986.59
2023-01-22T08:25:02.925Z,986.59
2023-01-22T08:26:03.877Z,986.59
2023-01-22T08:27:03.810Z,986.56
2023-01-22T08:28:03.790Z,986.67
2023-01-22T08:29:07.985Z,986.51
2023-01-22T08:30:03.814Z,986.59
2023-01-22T08:31:03.974Z,986.64
2023-01-22T08:32:03.966Z,986.59
2023-01-22T08:33:03.684Z,986.56
2023-01-22T08:34:03.749Z,986.64
2023-01-22T08:35:03.660Z,986.67
2023-01-22T08:36:03.584Z,986.64
2023-01-22T08:37:03.581Z,986.64
2023-01-22T08:38:03.531Z,986.59
2023-01-22T08:39:03.538Z,986.54
2023-01-22T08:40:03.465Z,986.59
2023-01-22T08:41:03.498Z,986.64
2023-01-22T08:42:03.537Z,986.67
2023-01-22T08:43:03.455Z,986.56
2023-01-22T08:44:03.394Z,986.67
2023-01-22T08:45:03.353Z,986.64
2023-01-22T08:46:03.331Z,986.67
2023-01-22T08:47:03.109Z,986.67
2023-01-22T08:48:03.114Z,986.78
2023-01-22T08:49:03.272Z,986.67
2023-01-22T08:50:03.121Z,986.75
2023-01-22T08:51:03.256Z,986.84
2023-01-22T08:52:03.146Z,986.70
2023-01-22T08:53:03.197Z,986.75
2023-01-22T08:54:03.114Z,986.70
2023-01-22T08:55:03.169Z,986.92
2023-01-22T08:56:03.100Z,986.67
2023-01-22T08:57:03.079Z,986.70
2023-01-22T08:58:03.036Z,986.78
2023-01-22T08:59:02.960Z,986.83
2023-01-22T09:00:03.019Z,986.69
2023-01-22T09:01:03.296Z,986.83
2023-01-22T09:02:03.241Z,986.83
2023-01-22T09:03:03.094Z,986.83
2023-01-22T09:04:03.170Z,986.67
2023-01-22T09:05:03.083Z,986.89
2023-01-22T09:06:03.008Z,986.78
2023-01-22T09:07:04.325Z,986.81
2023-01-22T09:08:03.263Z,986.86
2023-01-22T09:09:03.316Z,986.83
2023-01-22T09:10:03.228Z,986.78
2023-01-22T09:11:03.119Z,986.89
2023-01-22T09:12:03.313Z,986.83
2023-01-22T09:13:03.313Z,986.97
2023-01-22T09:14:03.204Z,986.86
2023-01-22T09:15:03.146Z,986.81
2023-01-22T09:16:03.167Z,987.06
2023-01-22T09:17:03.164Z,986.83
2023-01-22T09:18:03.084Z,986.86
2023-01-22T09:19:02.984Z,986.97
2023-01-22T09:20:02.884Z,987.03
2023-01-22T09:21:02.938Z,986.97
2023-01-22T09:22:03.937Z,987.06
2023-01-22T09:23:03.820Z,987.06
2023-01-22T09:24:03.726Z,987.05
2023-01-22T09:25:03.738Z,987.03
2023-01-22T09:26:03.712Z,987.22
2023-01-22T09:27:03.745Z,987.03
2023-01-22T09:28:03.586Z,987.17
2023-01-22T09:29:03.619Z,987.11
2023-01-22T09:30:03.667Z,987.11
2023-01-22T09:31:03.804Z,987.14
2023-01-22T09:32:03.838Z,986.94
2023-01-22T09:33:03.708Z,987.03
2023-01-22T09:34:03.769Z,986.94
2023-01-22T09:35:03.762Z,987.14
2023-01-22T09:36:03.763Z,987.11
2023-01-22T09:37:03.840Z,987.14
2023-01-22T09:38:03.725Z,987.11
2023-01-22T09:39:03.663Z,987.11
2023-01-22T09:40:03.743Z,987.19
2023-01-22T09:41:03.790Z,987.14
2023-01-22T09:42:03.702Z,987.08
2023-01-22T09:43:03.740Z,987.16
2023-01-22T09:44:03.797Z,987.16
2023-01-22T09:45:03.769Z,987.22
2023-01-22T09:46:03.875Z,987.11
2023-01-22T09:47:03.763Z,987.11
2023-01-22T09:48:03.695Z,987.11
2023-01-22T09:49:03.708Z,987.16
2023-01-22T09:50:03.815Z,987.08
2023-01-22T09:51:03.921Z,987.19
2023-01-22T09:52:05.573Z,987.19
2023-01-22T09:53:03.713Z,987.08
2023-01-22T09:54:03.695Z,987.27
2023-01-22T09:55:03.832Z,987.39
2023-01-22T09:56:03.815Z,987.36
2023-01-22T09:57:03.851Z,987.33
2023-01-22T09:58:03.751Z,987.22
2023-01-22T09:59:02.919Z,987.25
2023-01-22T10:00:03.877Z,987.33
2023-01-22T10:01:03.806Z,987.41
2023-01-22T10:02:03.924Z,987.27
2023-01-22T10:03:03.826Z,987.36
2023-01-22T10:04:03.554Z,987.27
2023-01-22T10:05:03.435Z,987.36
2023-01-22T10:06:03.464Z,987.41
2023-01-22T10:07:03.383Z,987.41
2023-01-22T10:08:03.375Z,987.36
2023-01-22T10:09:03.436Z,987.30
2023-01-22T10:10:03.441Z,987.27
2023-01-22T10:11:03.303Z,987.38
2023-01-22T10:12:03.276Z,987.22
2023-01-22T10:13:03.193Z,987.38
2023-01-22T10:14:03.132Z,987.38
2023-01-22T10:15:03.154Z,987.52
2023-01-22T10:16:03.091Z,987.39
2023-01-22T10:17:03.055Z,987.47
2023-01-22T10:18:03.023Z,987.41
2023-01-22T10:19:02.942Z,987.41
2023-01-22T10:20:02.881Z,987.47
2023-01-22T10:21:02.912Z,987.27
2023-01-22T10:22:02.954Z,987.52
2023-01-22T10:23:02.956Z,987.44
2023-01-22T10:24:03.116Z,987.38
2023-01-22T10:25:03.015Z,987.38
2023-01-22T10:26:02.952Z,987.38
2023-01-22T10:27:02.984Z,987.36
2023-01-22T10:28:02.955Z,987.30
2023-01-22T10:29:02.983Z,987.44
2023-01-22T10:30:03.008Z,987.33
2023-01-22T10:31:03.090Z,987.41
2023-01-22T10:32:02.997Z,987.41
2023-01-22T10:33:03.857Z,987.33
2023-01-22T10:34:03.798Z,987.36
2023-01-22T10:35:03.797Z,987.55
2023-01-22T10:36:03.769Z,987.41
2023-01-22T10:37:03.644Z,987.41
2023-01-22T10:38:03.567Z,987.44
2023-01-22T10:39:03.498Z,987.41
2023-01-22T10:40:03.383Z,987.44
2023-01-22T10:41:03.348Z,987.38
2023-01-22T10:42:03.297Z,987.52
2023-01-22T10:43:03.278Z,987.27
2023-01-22T10:44:03.136Z,987.44
2023-01-22T10:45:03.158Z,987.24
2023-01-22T10:46:03.189Z,987.30
2023-01-22T10:47:03.067Z,987.44
2023-01-22T10:48:03.072Z,987.44
2023-01-22T10:49:03.051Z,987.58
2023-01-22T10:50:04.996Z,987.32
2023-01-22T10:51:02.971Z,987.41
2023-01-22T10:52:02.954Z,987.41
2023-01-22T10:53:02.928Z,987.57
2023-01-22T10:54:03.889Z,987.24
2023-01-22T10:55:03.013Z,987.32
2023-01-22T10:56:03.975Z,987.43
2023-01-22T10:57:03.008Z,987.38
2023-01-22T10:58:04.023Z,987.35
2023-01-22T10:59:03.827Z,987.43
2023-01-22T11:00:03.862Z,987.29
2023-01-22T11:01:02.978Z,987.21
2023-01-22T11:02:03.826Z,987.38
2023-01-22T11:03:03.886Z,987.32
2023-01-22T11:04:02.923Z,987.29
2023-01-22T11:05:03.804Z,987.32
2023-01-22T11:06:03.903Z,987.29
2023-01-22T11:07:02.924Z,987.32
2023-01-22T11:08:03.904Z,987.32
2023-01-22T11:09:03.827Z,987.32
2023-01-22T11:10:03.752Z,987.32
2023-01-22T11:11:03.622Z,987.40
2023-01-22T11:12:03.616Z,987.32
2023-01-22T11:13:03.568Z,987.26
2023-01-22T11:14:03.689Z,987.32
2023-01-22T11:15:03.714Z,987.29
2023-01-22T11:16:03.679Z,987.32
2023-01-22T11:17:03.672Z,987.23
2023-01-22T11:18:03.573Z,987.23
2023-01-22T11:19:03.555Z,987.35
2023-01-22T11:20:03.519Z,987.35
2023-01-22T11:21:03.471Z,987.40
2023-01-22T11:22:03.322Z,987.37
2023-01-22T11:23:03.350Z,987.43
2023-01-22T11:24:03.217Z,987.46
2023-01-22T11:25:03.250Z,987.29
2023-01-22T11:26:03.437Z,987.43
2023-01-22T11:27:03.392Z,987.26
2023-01-22T11:28:03.394Z,987.37
2023-01-22T11:29:03.260Z,987.37
2023-01-22T11:30:03.301Z,987.37
2023-01-22T11:31:03.576Z,987.38
2023-01-22T11:32:03.195Z,987.38
2023-01-22T11:33:03.262Z,987.49
2023-01-22T11:34:03.101Z,987.29
2023-01-22T11:35:03.193Z,987.38
2023-01-22T11:36:03.134Z,987.52
2023-01-22T11:37:03.191Z,987.35
2023-01-22T11:38:03.240Z,987.46
2023-01-22T11:39:03.044Z,987.43
2023-01-22T11:40:02.992Z,987.38
2023-01-22T11:41:02.978Z,987.32
2023-01-22T11:42:03.851Z,987.32
2023-01-22T11:43:03.837Z,987.38
2023-01-22T11:44:03.882Z,987.43
2023-01-22T11:45:03.027Z,987.46
2023-01-22T11:46:03.967Z,987.46
2023-01-22T11:47:03.829Z,987.46
2023-01-22T11:48:03.708Z,987.52
2023-01-22T11:49:03.772Z,987.38
2023-01-22T11:50:03.809Z,987.44
2023-01-22T11:51:03.839Z,987.55
2023-01-22T11:52:03.793Z,987.35
2023-01-22T11:53:03.694Z,987.43
2023-01-22T11:54:03.687Z,987.35
2023-01-22T11:55:03.571Z,987.57
2023-01-22T11:56:03.608Z,987.41
2023-01-22T11:57:03.413Z,987.27
2023-01-22T11:58:03.386Z,987.41
2023-01-22T11:59:03.416Z,987.46
2023-01-22T12:00:03.290Z,987.52
2023-01-22T12:01:03.269Z,987.35
2023-01-22T12:02:03.243Z,987.41
2023-01-22T12:03:03.327Z,987.35
2023-01-22T12:04:03.298Z,987.38
2023-01-22T12:05:03.151Z,987.38
2023-01-22T12:06:03.124Z,987.41
2023-01-22T12:07:03.099Z,987.32
2023-01-22T12:08:03.012Z,987.41
2023-01-22T12:09:02.912Z,987.27
2023-01-22T12:10:03.929Z,987.30
2023-01-22T12:11:03.861Z,987.30
2023-01-22T12:12:03.795Z,987.19
2023-01-22T12:13:03.789Z,987.35
2023-01-22T12:14:03.817Z,987.27
2023-01-22T12:15:03.773Z,987.52
2023-01-22T12:16:05.880Z,987.38
2023-01-22T12:17:03.546Z,987.55
2023-01-22T12:18:03.597Z,987.47
2023-01-22T12:19:03.674Z,987.47
2023-01-22T12:20:03.596Z,987.52
2023-01-22T12:21:03.565Z,987.47
2023-01-22T12:22:03.585Z,987.55
2023-01-22T12:23:03.618Z,987.55
2023-01-22T12:24:03.587Z,987.63
2023-01-22T12:25:03.459Z,987.55
2023-01-22T12:26:03.393Z,987.63
2023-01-22T12:27:03.729Z,987.49
2023-01-22T12:28:02.936Z,987.55